Carrollton, Michigan
Current Conditions -  °F | °C
As of 6:35 PM on Friday 28 Nov 2014 (Local Time) from KHYX Reporting Station
Light Snow Light Snow  
Wind Chill: 17°   Ceiling: 3600
Heat Index: 27°   Visibility: 7mi
Dew Point: 23°   Wind: 9mph
Humidity: 86%   Direction: 140°SE
Pressure: 30.12"   Gusts: NA
Location:  43.45°N, 83.93°W
Report Text: KHYX 282335Z AUTO 14008KT 7SM -SN SCT006 BKN036 OVC080 M03/M05 A3012 RMK AO2
Loading
Personal Weather Stations






























Interactive Weather Map New forecast layout! Learn more

10-Day Weather Forecast

Advertisements
Track Severe Weather on mobile